Time,TemperatureF,DewpointF,PressureIn,WindDirection,WindDirectionDegrees,WindSpeedMPH,WindSpeedGustMPH,Humidity,HourlyPrecipIn,Conditions,Clouds,dailyrainin,SoftwareType,DateUTC
2013-04-22 00:02:00,47.6,30.4,29.86,South,190,0.0,2.0,51,0.00,,---,0.00,VWS V14.00,2013-04-22 06:02:00,
2013-04-22 00:07:00,47.4,30.7,29.88,South,190,0.0,1.0,52,0.00,,---,0.00,VWS V14.00,2013-04-22 06:07:00,
2013-04-22 00:12:00,47.2,30.5,29.88,South,190,0.0,1.0,52,0.00,,---,0.00,VWS V14.00,2013-04-22 06:12:00,
2013-04-22 00:17:00,47.0,30.8,29.87,South,190,0.0,0.0,53,0.00,,---,0.00,VWS V14.00,2013-04-22 06:17:00,
2013-04-22 00:22:00,47.0,31.2,29.87,South,191,0.0,0.0,54,0.00,,---,0.00,VWS V14.00,2013-04-22 06:22:00,
2013-04-22 00:27:00,46.8,31.0,29.87,South,191,0.0,0.0,54,0.00,,---,0.00,VWS V14.00,2013-04-22 06:27:00,
2013-04-22 00:32:00,46.7,30.5,29.87,South,191,0.0,1.0,53,0.00,,---,0.00,VWS V14.00,2013-04-22 06:32:00,
2013-04-22 00:37:00,46.5,30.8,29.87,South,191,1.0,2.0,54,0.00,,---,0.00,VWS V14.00,2013-04-22 06:37:00,
2013-04-22 00:42:00,46.4,30.7,29.87,SSW,192,0.0,1.0,54,0.00,,---,0.00,VWS V14.00,2013-04-22 06:42:00,
2013-04-22 00:47:00,46.4,30.7,29.86,SSW,192,0.0,0.0,54,0.00,,---,0.00,VWS V14.00,2013-04-22 06:47:00,
2013-04-22 00:52:00,46.2,30.5,29.86,SSW,192,0.0,0.0,54,0.00,,---,0.00,VWS V14.00,2013-04-22 06:52:00,
2013-04-22 00:57:00,45.9,30.2,29.86,SSW,192,0.0,0.0,54,0.00,,---,0.00,VWS V14.00,2013-04-22 06:57:00,
2013-04-22 01:02:00,45.8,30.6,29.85,SSW,192,0.0,0.0,55,0.00,,---,0.00,VWS V14.00,2013-04-22 07:02:00,
2013-04-22 01:07:00,45.6,30.4,29.85,SSW,192,0.0,0.0,55,0.00,,---,0.00,VWS V14.00,2013-04-22 07:07:00,
2013-04-22 01:12:00,45.5,30.3,29.86,SSW,192,0.0,0.0,55,0.00,,---,0.00,VWS V14.00,2013-04-22 07:12:00,
2013-04-22 01:17:00,45.4,30.2,29.87,SSW,192,0.0,0.0,55,0.00,,---,0.00,VWS V14.00,2013-04-22 07:17:00,
2013-04-22 01:22:00,45.2,30.0,29.86,SSW,192,0.0,0.0,55,0.00,,---,0.00,VWS V14.00,2013-04-22 07:22:00,
2013-04-22 01:27:00,44.5,29.8,29.87,SSW,192,0.0,0.0,56,0.00,,---,0.00,VWS V14.00,2013-04-22 07:27:00,
2013-04-22 01:32:00,44.1,29.9,29.87,SSW,192,0.0,0.0,57,0.00,,---,0.00,VWS V14.00,2013-04-22 07:32:00,
2013-04-22 01:37:00,44.0,29.8,29.86,SSW,192,0.0,0.0,57,0.00,,---,0.00,VWS V14.00,2013-04-22 07:37:00,
2013-04-22 01:42:00,43.7,29.5,29.87,SSW,192,0.0,0.0,57,0.00,,---,0.00,VWS V14.00,2013-04-22 07:42:00,
2013-04-22 01:47:00,43.6,29.4,29.86,SSW,192,0.0,0.0,57,0.00,,---,0.00,VWS V14.00,2013-04-22 07:47:00,
2013-04-22 01:52:00,43.4,29.6,29.86,SSW,192,0.0,0.0,58,0.00,,---,0.00,VWS V14.00,2013-04-22 07:52:00,
2013-04-22 01:57:00,43.2,29.9,29.87,SSW,192,0.0,0.0,59,0.00,,---,0.00,VWS V14.00,2013-04-22 07:57:00,
2013-04-22 02:02:00,42.8,29.5,29.86,SSW,192,0.0,0.0,59,0.00,,---,0.00,VWS V14.00,2013-04-22 08:02:00,
2013-04-22 02:07:00,42.6,29.7,29.86,SSW,192,0.0,0.0,60,0.00,,---,0.00,VWS V14.00,2013-04-22 08:07:00,
2013-04-22 02:12:00,42.4,29.5,29.87,SSW,192,0.0,0.0,60,0.00,,---,0.00,VWS V14.00,2013-04-22 08:12:00,
2013-04-22 02:17:00,42.2,29.3,29.86,SSW,192,0.0,0.0,60,0.00,,---,0.00,VWS V14.00,2013-04-22 08:17:00,
2013-04-22 02:22:00,42.0,29.1,29.86,SSW,192,0.0,0.0,60,0.00,,---,0.00,VWS V14.00,2013-04-22 08:22:00,
2013-04-22 02:27:00,41.7,28.9,29.86,SSW,192,0.0,0.0,60,0.00,,---,0.00,VWS V14.00,2013-04-22 08:27:00,
2013-04-22 02:32:00,41.5,29.1,29.86,SSW,192,0.0,2.0,61,0.00,,---,0.00,VWS V14.00,2013-04-22 08:32:00,
2013-04-22 02:37:00,41.3,29.3,29.85,SSW,192,0.0,0.0,62,0.00,,---,0.00,VWS V14.00,2013-04-22 08:37:00,
2013-04-22 02:42:00,41.0,29.0,29.85,SSW,192,0.0,0.0,62,0.00,,---,0.00,VWS V14.00,2013-04-22 08:42:00,
2013-04-22 02:47:00,40.7,28.7,29.85,SSW,192,0.0,0.0,62,0.00,,---,0.00,VWS V14.00,2013-04-22 08:47:00,
2013-04-22 02:52:00,40.5,28.9,29.85,SSW,192,0.0,0.0,63,0.00,,---,0.00,VWS V14.00,2013-04-22 08:52:00,
2013-04-22 02:57:00,40.2,29.0,29.85,SSW,192,0.0,0.0,64,0.00,,---,0.00,VWS V14.00,2013-04-22 08:57:00,
2013-04-22 03:03:00,39.8,29.0,29.86,SSW,192,0.0,0.0,65,0.00,,---,0.00,VWS V14.00,2013-04-22 09:03:00,
2013-04-22 03:08:00,39.7,28.9,29.86,SSW,192,0.0,0.0,65,0.00,,---,0.00,VWS V14.00,2013-04-22 09:08:00,
2013-04-22 03:13:00,39.6,28.8,29.85,SSW,192,0.0,0.0,65,0.00,,---,0.00,VWS V14.00,2013-04-22 09:13:00,
2013-04-22 03:18:00,39.5,28.7,29.85,SSW,192,0.0,0.0,65,0.00,,---,0.00,VWS V14.00,2013-04-22 09:18:00,
2013-04-22 03:23:00,39.3,28.5,29.85,SSW,192,0.0,0.0,65,0.00,,---,0.00,VWS V14.00,2013-04-22 09:23:00,
2013-04-22 03:28:00,39.1,28.7,29.84,SSW,192,0.0,0.0,66,0.00,,---,0.00,VWS V14.00,2013-04-22 09:28:00,
2013-04-22 03:33:00,39.0,29.0,29.84,SSW,192,0.0,0.0,67,0.00,,---,0.00,VWS V14.00,2013-04-22 09:33:00,
2013-04-22 03:38:00,38.9,28.9,29.84,SSW,192,0.0,0.0,67,0.00,,---,0.00,VWS V14.00,2013-04-22 09:38:00,
2013-04-22 03:43:00,38.7,28.7,29.84,SSW,192,0.0,0.0,67,0.00,,---,0.00,VWS V14.00,2013-04-22 09:43:00,
2013-04-22 03:48:00,38.5,28.5,29.84,SSW,192,0.0,0.0,67,0.00,,---,0.00,VWS V14.00,2013-04-22 09:48:00,
2013-04-22 03:53:00,38.4,28.8,29.85,SSW,192,0.0,0.0,68,0.00,,---,0.00,VWS V14.00,2013-04-22 09:53:00,
2013-04-22 03:58:00,38.2,28.6,29.85,SSW,192,0.0,0.0,68,0.00,,---,0.00,VWS V14.00,2013-04-22 09:58:00,
2013-04-22 04:03:00,38.1,28.5,29.86,SSW,192,0.0,0.0,68,0.00,,---,0.00,VWS V14.00,2013-04-22 10:03:00,
2013-04-22 04:08:00,38.0,28.8,29.87,SSW,192,0.0,1.0,69,0.00,,---,0.00,VWS V14.00,2013-04-22 10:08:00,
2013-04-22 04:14:00,37.9,28.6,29.87,SSW,192,0.0,0.0,69,0.00,,---,0.00,VWS V14.00,2013-04-22 10:14:00,
2013-04-22 04:19:00,38.0,28.8,29.87,SSW,192,0.0,0.0,69,0.00,,---,0.00,VWS V14.00,2013-04-22 10:19:00,
2013-04-22 04:25:00,38.0,28.4,29.87,SSW,192,0.0,0.0,68,0.00,,---,0.00,VWS V14.00,2013-04-22 10:25:00,
2013-04-22 04:30:00,38.1,28.5,29.87,SSW,192,0.0,0.0,68,0.00,,---,0.00,VWS V14.00,2013-04-22 10:30:00,
2013-04-22 04:35:00,38.2,28.6,29.87,SSW,192,0.0,0.0,68,0.00,,---,0.00,VWS V14.00,2013-04-22 10:35:00,
2013-04-22 04:41:00,38.2,28.2,29.87,SSW,192,0.0,0.0,67,0.00,,---,0.00,VWS V14.00,2013-04-22 10:41:00,
2013-04-22 04:46:00,38.3,28.3,29.87,SSW,192,0.0,0.0,67,0.00,,---,0.00,VWS V14.00,2013-04-22 10:46:00,
2013-04-22 04:51:00,38.2,28.2,29.88,SSW,192,0.0,0.0,67,0.00,,---,0.00,VWS V14.00,2013-04-22 10:51:00,
2013-04-22 04:57:00,38.2,28.2,29.89,SSW,192,0.0,1.0,67,0.00,,---,0.00,VWS V14.00,2013-04-22 10:57:00,
2013-04-22 05:02:00,38.3,28.3,29.89,SSW,192,0.0,0.0,67,0.00,,---,0.00,VWS V14.00,2013-04-22 11:02:00,
2013-04-22 05:07:00,38.4,28.4,29.91,SSW,193,0.0,1.0,67,0.00,,---,0.00,VWS V14.00,2013-04-22 11:07:00,
2013-04-22 05:12:00,38.6,28.6,29.90,SSW,192,0.0,1.0,67,0.00,,---,0.00,VWS V14.00,2013-04-22 11:12:00,
2013-04-22 05:18:00,38.9,28.9,29.91,NNE,17,2.0,3.0,67,0.00,,---,0.00,VWS V14.00,2013-04-22 11:18:00,
2013-04-22 05:23:00,39.3,28.9,29.91,NNW,346,0.0,4.0,66,0.00,,---,0.00,VWS V14.00,2013-04-22 11:23:00,
2013-04-22 05:28:00,40.0,29.2,29.91,North,355,1.0,4.0,65,0.00,,---,0.00,VWS V14.00,2013-04-22 11:28:00,
2013-04-22 05:34:00,40.6,29.4,29.90,North,355,0.0,2.0,64,0.00,,---,0.00,VWS V14.00,2013-04-22 11:34:00,
2013-04-22 05:39:00,41.0,29.8,29.90,ENE,78,0.0,2.0,64,0.00,,---,0.00,VWS V14.00,2013-04-22 11:39:00,
2013-04-22 05:44:00,41.2,30.0,29.89,North,9,0.0,0.0,64,0.00,,---,0.00,VWS V14.00,2013-04-22 11:44:00,
2013-04-22 05:49:00,41.5,30.2,29.90,NNE,28,5.0,5.0,64,0.00,,---,0.00,VWS V14.00,2013-04-22 11:49:00,
2013-04-22 05:54:00,41.7,30.8,29.89,NNE,21,0.0,0.0,65,0.00,,---,0.00,VWS V14.00,2013-04-22 11:54:00,
2013-04-22 05:59:00,41.9,31.4,29.90,NNE,14,2.0,2.0,66,0.00,,---,0.00,VWS V14.00,2013-04-22 11:59:00,
2013-04-22 06:04:00,42.0,31.9,29.90,North,5,0.0,0.0,67,0.00,,---,0.00,VWS V14.00,2013-04-22 12:04:00,
2013-04-22 06:09:00,42.1,32.3,29.91,North,360,0.0,0.0,68,0.00,,---,0.00,VWS V14.00,2013-04-22 12:09:00,
2013-04-22 06:15:00,42.1,32.3,29.91,North,360,0.0,0.0,68,0.00,,---,0.00,VWS V14.00,2013-04-22 12:15:00,
2013-04-22 06:21:00,42.1,32.3,29.90,North,360,0.0,0.0,68,0.00,,---,0.00,VWS V14.00,2013-04-22 12:21:00,
2013-04-22 06:26:00,42.1,32.7,29.90,North,5,0.0,0.0,69,0.00,,---,0.00,VWS V14.00,2013-04-22 12:26:00,
2013-04-22 06:31:00,42.1,32.7,29.90,North,5,0.0,0.0,69,0.00,,---,0.00,VWS V14.00,2013-04-22 12:31:00,
2013-04-22 06:36:00,42.0,32.9,29.91,North,5,0.0,0.0,70,0.00,,---,0.00,VWS V14.00,2013-04-22 12:36:00,
2013-04-22 06:41:00,42.0,32.9,29.91,North,360,0.0,0.0,70,0.00,,---,0.00,VWS V14.00,2013-04-22 12:41:00,
2013-04-22 06:46:00,42.0,33.3,29.91,North,5,0.0,0.0,71,0.00,,---,0.00,VWS V14.00,2013-04-22 12:46:00,
2013-04-22 06:51:00,41.9,33.2,29.91,North,5,0.0,0.0,71,0.00,,---,0.00,VWS V14.00,2013-04-22 12:51:00,
2013-04-22 06:56:00,41.9,33.2,29.91,North,360,0.0,0.0,71,0.00,,---,0.00,VWS V14.00,2013-04-22 12:56:00,
2013-04-22 07:01:00,41.9,33.2,29.92,North,360,0.0,0.0,71,0.00,,---,0.00,VWS V14.00,2013-04-22 13:01:00,
2013-04-22 07:06:00,42.0,33.6,29.93,North,5,0.0,1.0,72,0.00,,---,0.00,VWS V14.00,2013-04-22 13:06:00,
2013-04-22 07:11:00,42.0,33.6,29.93,North,5,0.0,0.0,72,0.00,,---,0.00,VWS V14.00,2013-04-22 13:11:00,
2013-04-22 07:16:00,42.1,34.1,29.92,North,5,0.0,0.0,73,0.00,,---,0.00,VWS V14.00,2013-04-22 13:16:00,
2013-04-22 07:22:00,42.2,34.2,29.92,North,360,0.0,1.0,73,0.00,,---,0.00,VWS V14.00,2013-04-22 13:22:00,
2013-04-22 07:27:00,42.3,34.6,29.93,East,91,0.0,1.0,74,0.00,,---,0.00,VWS V14.00,2013-04-22 13:27:00,
2013-04-22 07:32:00,42.3,34.6,29.93,East,91,0.0,1.0,74,0.00,,---,0.00,VWS V14.00,2013-04-22 13:32:00,
2013-04-22 07:37:00,42.5,34.8,29.93,East,91,0.0,0.0,74,0.00,,---,0.00,VWS V14.00,2013-04-22 13:37:00,
2013-04-22 07:42:00,42.5,34.8,29.94,East,91,0.0,0.0,74,0.00,,---,0.00,VWS V14.00,2013-04-22 13:42:00,
2013-04-22 07:47:00,42.6,34.9,29.93,East,92,0.0,0.0,74,0.00,,---,0.00,VWS V14.00,2013-04-22 13:47:00,
2013-04-22 07:52:00,42.8,35.1,29.93,East,92,0.0,0.0,74,0.00,,---,0.00,VWS V14.00,2013-04-22 13:52:00,
2013-04-22 07:57:00,42.9,35.2,29.94,East,92,0.0,0.0,74,0.00,,---,0.00,VWS V14.00,2013-04-22 13:57:00,
2013-04-22 08:02:00,43.1,35.4,29.94,East,92,0.0,0.0,74,0.00,,---,0.00,VWS V14.00,2013-04-22 14:02:00,
2013-04-22 08:07:00,43.1,35.4,29.95,ESE,117,0.0,2.0,74,0.00,,---,0.00,VWS V14.00,2013-04-22 14:07:00,
2013-04-22 08:12:00,43.3,35.6,29.94,SE,129,2.0,2.0,74,0.00,,---,0.00,VWS V14.00,2013-04-22 14:12:00,
2013-04-22 08:17:00,43.6,35.5,29.92,SSE,153,2.0,4.0,73,0.00,,---,0.00,VWS V14.00,2013-04-22 14:17:00,
2013-04-22 08:22:00,43.8,35.7,29.92,SSE,150,0.0,0.0,73,0.00,,---,0.00,VWS V14.00,2013-04-22 14:22:00,
2013-04-22 08:27:00,44.3,35.9,29.92,SSE,150,0.0,0.0,72,0.00,,---,0.00,VWS V14.00,2013-04-22 14:27:00,
2013-04-22 08:32:00,44.6,35.8,29.92,SSE,150,0.0,0.0,71,0.00,,---,0.00,VWS V14.00,2013-04-22 14:32:00,
2013-04-22 08:37:00,45.5,37.0,29.92,SSE,149,0.0,1.0,72,0.00,,---,0.00,VWS V14.00,2013-04-22 14:37:00,
2013-04-22 08:42:00,47.0,37.4,29.91,SSE,149,2.0,2.0,69,0.00,,---,0.00,VWS V14.00,2013-04-22 14:42:00,
2013-04-22 08:47:00,47.3,36.2,29.91,SSE,149,1.0,1.0,65,0.00,,---,0.00,VWS V14.00,2013-04-22 14:47:00,
2013-04-22 08:52:00,47.9,36.7,29.90,SSE,149,0.0,0.0,65,0.00,,---,0.00,VWS V14.00,2013-04-22 14:52:00,
2013-04-22 08:57:00,47.6,36.0,29.90,SSE,149,0.0,3.0,64,0.00,,---,0.00,VWS V14.00,2013-04-22 14:57:00,
2013-04-22 09:02:00,47.9,37.1,29.92,SSE,149,1.0,3.0,66,0.00,,---,0.00,VWS V14.00,2013-04-22 15:02:00,
2013-04-22 09:07:00,49.4,37.3,29.90,SSE,149,1.0,1.0,63,0.00,,---,0.00,VWS V14.00,2013-04-22 15:07:00,
2013-04-22 09:12:00,48.7,35.9,29.91,SSE,165,0.0,2.0,61,0.00,,---,0.00,VWS V14.00,2013-04-22 15:12:00,
2013-04-22 09:17:00,48.8,36.0,29.91,SSE,165,0.0,1.0,61,0.00,,---,0.00,VWS V14.00,2013-04-22 15:17:00,
2013-04-22 09:22:00,49.4,36.9,29.91,SSE,165,0.0,0.0,62,0.00,,---,0.00,VWS V14.00,2013-04-22 15:22:00,
2013-04-22 09:27:00,50.8,36.6,29.90,SSE,156,0.0,3.0,58,0.00,,---,0.00,VWS V14.00,2013-04-22 15:27:00,
2013-04-22 09:32:00,52.1,36.4,29.89,SSE,155,0.0,1.0,55,0.00,,---,0.00,VWS V14.00,2013-04-22 15:32:00,
2013-04-22 09:37:00,52.4,36.3,29.89,SSE,155,0.0,2.0,54,0.00,,---,0.00,VWS V14.00,2013-04-22 15:37:00,
2013-04-22 09:42:00,52.2,36.1,29.89,East,80,3.0,3.0,54,0.00,,---,0.00,VWS V14.00,2013-04-22 15:42:00,
2013-04-22 09:47:00,52.5,36.3,29.89,East,86,0.0,4.0,54,0.00,,---,0.00,VWS V14.00,2013-04-22 15:47:00,
2013-04-22 09:52:00,53.1,37.4,29.89,East,88,0.0,1.0,55,0.00,,---,0.00,VWS V14.00,2013-04-22 15:52:00,
2013-04-22 09:57:00,53.2,35.1,29.88,ENE,69,0.0,3.0,50,0.00,,---,0.00,VWS V14.00,2013-04-22 15:57:00,
2013-04-22 10:02:00,53.1,36.0,29.89,NNE,22,5.0,5.0,52,0.00,,---,0.00,VWS V14.00,2013-04-22 16:02:00,
2013-04-22 10:07:00,54.0,35.8,29.88,NE,36,2.0,6.0,50,0.00,,---,0.00,VWS V14.00,2013-04-22 16:07:00,
2013-04-22 10:12:00,53.9,36.2,29.89,NNE,23,3.0,12.0,51,0.00,,---,0.00,VWS V14.00,2013-04-22 16:12:00,
2013-04-22 10:17:00,52.8,36.2,29.90,NE,53,6.0,10.0,53,0.00,,---,0.00,VWS V14.00,2013-04-22 16:17:00,
2013-04-22 10:22:00,51.1,36.0,29.92,North,5,5.0,7.0,56,0.00,,---,0.00,VWS V14.00,2013-04-22 16:22:00,
2013-04-22 10:28:00,48.0,36.8,29.95,NNW,344,13.0,15.0,65,0.00,,---,0.00,VWS V14.00,2013-04-22 16:28:00,
2013-04-22 10:33:00,46.6,35.1,29.98,NNE,18,4.0,15.0,64,0.00,,---,0.00,VWS V14.00,2013-04-22 16:33:00,
2013-04-22 10:39:00,45.2,34.2,30.00,NNW,333,3.0,12.0,65,0.00,,---,0.00,VWS V14.00,2013-04-22 16:39:00,
2013-04-22 10:44:00,43.9,33.3,30.00,NE,37,6.0,16.0,66,0.00,,---,0.00,VWS V14.00,2013-04-22 16:44:00,
2013-04-22 10:49:00,42.7,32.5,30.02,NE,46,13.0,15.0,67,0.00,,---,0.00,VWS V14.00,2013-04-22 16:49:00,
2013-04-22 10:54:00,41.9,31.4,30.03,NE,46,7.0,20.0,66,0.00,,---,0.00,VWS V14.00,2013-04-22 16:54:00,
2013-04-22 10:59:00,41.0,30.9,30.06,North,355,6.0,14.0,67,0.00,,---,0.00,VWS V14.00,2013-04-22 16:59:00,
2013-04-22 11:04:00,40.3,30.2,30.07,NE,40,3.0,11.0,67,0.00,,---,0.00,VWS V14.00,2013-04-22 17:04:00,
2013-04-22 11:09:00,39.8,29.8,30.06,NNE,26,4.0,12.0,67,0.00,,---,0.00,VWS V14.00,2013-04-22 17:09:00,
2013-04-22 11:14:00,39.4,29.7,30.07,North,360,6.0,11.0,68,0.00,,---,0.00,VWS V14.00,2013-04-22 17:14:00,
2013-04-22 11:19:00,38.8,29.2,30.08,NE,40,3.0,14.0,68,0.00,,---,0.00,VWS V14.00,2013-04-22 17:19:00,
2013-04-22 11:24:00,38.2,28.9,30.09,North,9,8.0,11.0,69,0.00,,---,0.00,VWS V14.00,2013-04-22 17:24:00,
2013-04-22 11:29:00,37.1,28.6,30.10,NNW,345,13.0,13.0,71,0.00,,---,0.00,VWS V14.00,2013-04-22 17:29:00,
2013-04-22 11:34:00,35.9,28.1,30.12,NNE,20,13.0,17.0,73,0.00,,---,0.00,VWS V14.00,2013-04-22 17:34:00,
2013-04-22 11:39:00,35.1,28.3,30.14,NNW,333,10.0,11.0,76,0.00,,---,0.00,VWS V14.00,2013-04-22 17:39:00,
2013-04-22 11:44:00,34.4,28.0,30.15,NE,44,4.0,15.0,77,0.00,,---,0.00,VWS V14.00,2013-04-22 17:44:00,
2013-04-22 11:49:00,33.7,27.9,30.16,NNE,32,1.0,7.0,79,0.00,,---,0.00,VWS V14.00,2013-04-22 17:49:00,
2013-04-22 11:54:00,33.5,28.0,30.16,North,5,2.0,11.0,80,0.00,,---,0.00,VWS V14.00,2013-04-22 17:54:00,
2013-04-22 11:59:00,33.0,27.8,30.16,NNE,21,6.0,10.0,81,0.00,,---,0.00,VWS V14.00,2013-04-22 17:59:00,
2013-04-22 12:04:00,33.0,28.1,30.19,North,360,5.0,10.0,82,0.00,,---,0.00,VWS V14.00,2013-04-22 18:04:00,
2013-04-22 12:09:00,32.7,27.8,30.19,NNE,13,3.0,5.0,82,0.00,,---,0.00,VWS V14.00,2013-04-22 18:09:00,
2013-04-22 12:14:00,32.5,27.9,30.19,NE,46,3.0,4.0,83,0.00,,---,0.00,VWS V14.00,2013-04-22 18:14:00,
2013-04-22 12:19:00,32.3,27.7,30.19,NNW,340,6.0,9.0,83,0.00,,---,0.00,VWS V14.00,2013-04-22 18:19:00,
2013-04-22 12:24:00,31.9,27.3,30.19,NNE,17,5.0,7.0,83,0.00,,---,0.00,VWS V14.00,2013-04-22 18:24:00,
2013-04-22 12:29:00,31.6,27.3,30.21,NE,50,3.0,6.0,84,0.00,,---,0.00,VWS V14.00,2013-04-22 18:29:00,
2013-04-22 12:34:00,31.4,27.4,30.22,North,9,1.0,5.0,85,0.00,,---,0.00,VWS V14.00,2013-04-22 18:34:00,
2013-04-22 12:39:00,31.4,27.4,30.21,NNE,19,4.0,4.0,85,0.00,,---,0.00,VWS V14.00,2013-04-22 18:39:00,
2013-04-22 12:44:00,31.5,27.8,30.20,NNE,19,7.0,9.0,86,0.00,,---,0.00,VWS V14.00,2013-04-22 18:44:00,
2013-04-22 12:49:00,31.4,27.7,30.22,North,5,4.0,8.0,86,0.00,,---,0.00,VWS V14.00,2013-04-22 18:49:00,
2013-04-22 12:54:00,31.5,27.8,30.20,NNW,338,6.0,7.0,86,0.00,,---,0.00,VWS V14.00,2013-04-22 18:54:00,
2013-04-22 12:59:00,31.5,27.8,30.20,North,350,3.0,9.0,86,0.00,,---,0.00,VWS V14.00,2013-04-22 18:59:00,
2013-04-22 13:04:00,31.3,27.9,30.22,NNW,327,6.0,11.0,87,0.00,,---,0.00,VWS V14.00,2013-04-22 19:04:00,
2013-04-22 13:09:00,31.2,27.8,30.22,NE,44,4.0,10.0,87,0.00,,---,0.00,VWS V14.00,2013-04-22 19:09:00,
2013-04-22 13:14:00,31.2,27.8,30.23,NNE,32,6.0,11.0,87,0.00,,---,0.00,VWS V14.00,2013-04-22 19:14:00,
2013-04-22 13:19:00,31.2,27.8,30.23,ENE,64,6.0,7.0,87,0.00,,---,0.00,VWS V14.00,2013-04-22 19:19:00,
2013-04-22 13:24:00,31.1,27.4,30.25,North,355,2.0,7.0,86,0.00,,---,0.00,VWS V14.00,2013-04-22 19:24:00,
2013-04-22 13:29:00,31.1,27.4,30.25,NNW,335,4.0,9.0,86,0.00,,---,0.00,VWS V14.00,2013-04-22 19:29:00,
2013-04-22 13:34:00,30.9,27.5,30.25,North,360,4.0,6.0,87,0.00,,---,0.00,VWS V14.00,2013-04-22 19:34:00,
2013-04-22 13:39:00,30.8,27.1,30.25,NNW,346,3.0,9.0,86,0.00,,---,0.00,VWS V14.00,2013-04-22 19:39:00,
2013-04-22 13:44:00,30.8,27.4,30.25,NNW,346,2.0,5.0,87,0.00,,---,0.00,VWS V14.00,2013-04-22 19:44:00,
2013-04-22 13:49:00,30.3,26.6,30.27,NNE,23,5.0,7.0,86,0.00,,---,0.00,VWS V14.00,2013-04-22 19:49:00,
2013-04-22 13:54:00,30.2,26.5,30.27,NE,37,4.0,7.0,86,0.00,,---,0.00,VWS V14.00,2013-04-22 19:54:00,
2013-04-22 13:59:00,30.2,26.8,30.26,NNE,24,1.0,7.0,87,0.00,,---,0.00,VWS V14.00,2013-04-22 19:59:00,
2013-04-22 14:04:00,30.2,26.5,30.28,North,11,3.0,9.0,86,0.00,,---,0.00,VWS V14.00,2013-04-22 20:04:00,
2013-04-22 14:09:00,30.3,26.9,30.28,NNE,15,4.0,5.0,87,0.00,,---,0.00,VWS V14.00,2013-04-22 20:09:00,
2013-04-22 14:14:00,30.6,26.9,30.28,NNE,14,3.0,6.0,86,0.00,,---,0.00,VWS V14.00,2013-04-22 20:14:00,
2013-04-22 14:20:00,30.8,27.4,30.28,NE,36,0.0,1.0,87,0.00,,---,0.00,VWS V14.00,2013-04-22 20:20:00,
2013-04-22 14:26:00,30.7,27.0,30.29,NNE,31,4.0,11.0,86,0.00,,---,0.00,VWS V14.00,2013-04-22 20:26:00,
2013-04-22 14:31:00,30.3,26.3,30.29,NNW,336,6.0,9.0,85,0.00,,---,0.00,VWS V14.00,2013-04-22 20:31:00,
2013-04-22 14:36:00,30.1,26.4,30.29,NNE,29,2.0,10.0,86,0.00,,---,0.00,VWS V14.00,2013-04-22 20:36:00,
2013-04-22 14:41:00,29.9,26.0,30.29,NNW,348,8.0,13.0,85,0.00,,---,0.00,VWS V14.00,2013-04-22 20:41:00,
2013-04-22 14:46:00,30.0,26.3,30.30,East,94,1.0,5.0,86,0.00,,---,0.00,VWS V14.00,2013-04-22 20:46:00,
2013-04-22 14:51:00,30.5,26.8,30.30,NNE,22,4.0,5.0,86,0.00,,---,0.00,VWS V14.00,2013-04-22 20:51:00,
2013-04-22 14:56:00,30.4,26.4,30.30,NE,46,3.0,6.0,85,0.00,,---,0.00,VWS V14.00,2013-04-22 20:56:00,
2013-04-22 15:01:00,30.4,26.4,30.31,North,349,5.0,7.0,85,0.00,,---,0.01,VWS V14.00,2013-04-22 21:01:00,
2013-04-22 15:06:00,30.2,26.2,30.32,ENE,60,8.0,9.0,85,0.00,,---,0.01,VWS V14.00,2013-04-22 21:06:00,
2013-04-22 15:11:00,30.1,26.1,30.32,NE,40,4.0,11.0,85,0.00,,---,0.01,VWS V14.00,2013-04-22 21:11:00,
2013-04-22 15:16:00,30.3,26.3,30.32,NE,41,3.0,3.0,85,0.00,,---,0.01,VWS V14.00,2013-04-22 21:16:00,
2013-04-22 15:22:00,30.1,25.9,30.32,North,10,3.0,4.0,84,0.00,,---,0.01,VWS V14.00,2013-04-22 21:22:00,
2013-04-22 15:27:00,30.1,25.9,30.32,North,9,3.0,9.0,84,0.00,,---,0.01,VWS V14.00,2013-04-22 21:27:00,
2013-04-22 15:33:00,29.8,25.6,30.32,North,5,9.0,9.0,84,0.00,,---,0.01,VWS V14.00,2013-04-22 21:33:00,
2013-04-22 15:38:00,29.7,25.5,30.31,NNW,334,3.0,9.0,84,0.00,,---,0.01,VWS V14.00,2013-04-22 21:38:00,
2013-04-22 15:43:00,29.6,25.4,30.31,ESE,105,2.0,6.0,84,0.00,,---,0.01,VWS V14.00,2013-04-22 21:43:00,
2013-04-22 15:48:00,29.7,25.5,30.31,NNE,21,4.0,6.0,84,0.00,,---,0.01,VWS V14.00,2013-04-22 21:48:00,
2013-04-22 15:53:00,29.9,25.7,30.30,North,5,1.0,3.0,84,0.00,,---,0.01,VWS V14.00,2013-04-22 21:53:00,
2013-04-22 15:58:00,30.0,25.8,30.31,NE,44,5.0,9.0,84,0.00,,---,0.01,VWS V14.00,2013-04-22 21:58:00,
2013-04-22 16:03:00,29.6,25.1,30.31,NNE,26,2.0,4.0,83,0.00,,---,0.01,VWS V14.00,2013-04-22 22:03:00,
2013-04-22 16:09:00,29.6,25.1,30.30,NE,34,9.0,11.0,83,0.00,,---,0.01,VWS V14.00,2013-04-22 22:09:00,
2013-04-22 16:14:00,29.4,24.9,30.32,NNW,332,4.0,7.0,83,0.00,,---,0.01,VWS V14.00,2013-04-22 22:14:00,
2013-04-22 16:19:00,29.2,24.7,30.33,NE,45,1.0,6.0,83,0.00,,---,0.01,VWS V14.00,2013-04-22 22:19:00,
2013-04-22 16:24:00,29.3,25.1,30.33,NNE,26,7.0,7.0,84,0.00,,---,0.01,VWS V14.00,2013-04-22 22:24:00,
2013-04-22 16:29:00,29.2,25.0,30.33,NE,51,5.0,9.0,84,0.00,,---,0.01,VWS V14.00,2013-04-22 22:29:00,
2013-04-22 16:34:00,29.1,24.9,30.32,NE,40,6.0,7.0,84,0.00,,---,0.01,VWS V14.00,2013-04-22 22:34:00,
2013-04-22 16:39:00,29.1,24.9,30.33,NE,34,4.0,5.0,84,0.00,,---,0.01,VWS V14.00,2013-04-22 22:39:00,
2013-04-22 16:44:00,29.0,24.8,30.33,NE,40,4.0,6.0,84,0.00,,---,0.01,VWS V14.00,2013-04-22 22:44:00,
2013-04-22 16:49:00,28.9,24.7,30.34,NNE,25,3.0,6.0,84,0.00,,---,0.01,VWS V14.00,2013-04-22 22:49:00,
2013-04-22 16:54:00,28.8,24.6,30.33,NNE,18,5.0,8.0,84,0.00,,---,0.01,VWS V14.00,2013-04-22 22:54:00,
2013-04-22 16:59:00,28.7,24.5,30.33,NNE,26,0.0,6.0,84,0.00,,---,0.01,VWS V14.00,2013-04-22 22:59:00,
2013-04-22 17:04:00,28.7,24.8,30.30,NNE,22,3.0,3.0,85,0.00,,---,0.01,VWS V14.00,2013-04-22 23:04:00,
2013-04-22 17:09:00,28.8,24.9,30.31,NNE,18,4.0,9.0,85,0.00,,---,0.01,VWS V14.00,2013-04-22 23:09:00,
2013-04-22 17:14:00,28.6,24.4,30.31,North,5,3.0,7.0,84,0.00,,---,0.01,VWS V14.00,2013-04-22 23:14:00,
2013-04-22 17:19:00,28.5,24.3,30.32,NNE,25,4.0,6.0,84,0.00,,---,0.01,VWS V14.00,2013-04-22 23:19:00,
2013-04-22 17:24:00,28.3,24.1,30.33,ENE,76,2.0,6.0,84,0.00,,---,0.01,VWS V14.00,2013-04-22 23:24:00,
2013-04-22 17:29:00,28.2,24.3,30.33,North,5,0.0,5.0,85,0.00,,---,0.01,VWS V14.00,2013-04-22 23:29:00,
2013-04-22 17:34:00,28.3,24.4,30.33,NE,44,2.0,7.0,85,0.00,,---,0.01,VWS V14.00,2013-04-22 23:34:00,
2013-04-22 17:39:00,28.2,24.3,30.34,NE,52,4.0,5.0,85,0.00,,---,0.02,VWS V14.00,2013-04-22 23:39:00,
2013-04-22 17:44:00,28.0,23.8,30.35,NNE,22,6.0,7.0,84,0.00,,---,0.02,VWS V14.00,2013-04-22 23:44:00,
2013-04-22 17:49:00,27.7,23.5,30.36,NE,38,7.0,7.0,84,0.00,,---,0.02,VWS V14.00,2013-04-22 23:49:00,
2013-04-22 17:54:00,27.6,23.4,30.36,NE,41,3.0,4.0,84,0.00,,---,0.02,VWS V14.00,2013-04-22 23:54:00,
2013-04-22 18:00:00,27.8,23.6,30.35,East,88,0.0,1.0,84,0.00,,---,0.02,VWS V14.00,2013-04-23 00:00:00,
2013-04-22 18:06:00,28.0,23.8,30.35,East,101,1.0,2.0,84,0.00,,---,0.02,VWS V14.00,2013-04-23 00:06:00,
2013-04-22 18:11:00,28.1,23.9,30.35,NNE,26,2.0,3.0,84,0.00,,---,0.02,VWS V14.00,2013-04-23 00:11:00,
2013-04-22 18:16:00,28.0,23.8,30.34,East,98,0.0,4.0,84,0.00,,---,0.02,VWS V14.00,2013-04-23 00:16:00,
2013-04-22 18:21:00,27.8,23.6,30.35,East,95,0.0,3.0,84,0.00,,---,0.02,VWS V14.00,2013-04-23 00:21:00,
2013-04-22 18:26:00,27.5,23.3,30.35,SE,136,0.0,2.0,84,0.00,,---,0.02,VWS V14.00,2013-04-23 00:26:00,
2013-04-22 18:31:00,27.2,23.0,30.36,NNW,343,0.0,6.0,84,0.00,,---,0.02,VWS V14.00,2013-04-23 00:31:00,
2013-04-22 18:36:00,27.1,22.9,30.36,NNE,15,2.0,3.0,84,0.00,,---,0.02,VWS V14.00,2013-04-23 00:36:00,
2013-04-22 18:41:00,27.0,22.8,30.36,NE,49,0.0,2.0,84,0.00,,---,0.02,VWS V14.00,2013-04-23 00:41:00,
2013-04-22 18:46:00,26.9,23.0,30.37,NNE,20,0.0,3.0,85,0.00,,---,0.02,VWS V14.00,2013-04-23 00:46:00,
2013-04-22 18:51:00,26.9,23.0,30.38,NNE,24,0.0,2.0,85,0.00,,---,0.02,VWS V14.00,2013-04-23 00:51:00,
2013-04-22 18:56:00,26.8,22.9,30.38,NNE,24,2.0,6.0,85,0.00,,---,0.02,VWS V14.00,2013-04-23 00:56:00,
2013-04-22 19:01:00,26.6,22.7,30.37,North,349,1.0,5.0,85,0.00,,---,0.02,VWS V14.00,2013-04-23 01:01:00,
2013-04-22 19:06:00,26.5,22.6,30.36,North,355,3.0,5.0,85,0.00,,---,0.02,VWS V14.00,2013-04-23 01:06:00,
2013-04-22 19:11:00,26.4,22.5,30.37,NNE,32,5.0,6.0,85,0.00,,---,0.02,VWS V14.00,2013-04-23 01:11:00,
2013-04-22 19:16:00,26.2,22.3,30.38,NE,43,3.0,5.0,85,0.00,,---,0.02,VWS V14.00,2013-04-23 01:16:00,
2013-04-22 19:21:00,25.9,22.0,30.38,NNE,28,2.0,7.0,85,0.00,,---,0.02,VWS V14.00,2013-04-23 01:21:00,
2013-04-22 19:26:00,25.8,21.9,30.39,NNE,31,7.0,7.0,85,0.00,,---,0.02,VWS V14.00,2013-04-23 01:26:00,
2013-04-22 19:31:00,25.7,21.8,30.39,North,5,4.0,9.0,85,0.00,,---,0.02,VWS V14.00,2013-04-23 01:31:00,
2013-04-22 19:36:00,25.5,21.6,30.39,NNE,26,2.0,5.0,85,0.00,,---,0.02,VWS V14.00,2013-04-23 01:36:00,
2013-04-22 19:41:00,25.5,21.6,30.39,NNE,29,3.0,5.0,85,0.00,,---,0.02,VWS V14.00,2013-04-23 01:41:00,
2013-04-22 19:46:00,25.5,21.6,30.41,NNE,30,0.0,2.0,85,0.00,,---,0.02,VWS V14.00,2013-04-23 01:46:00,
2013-04-22 19:51:00,25.5,21.9,30.41,NNE,26,1.0,3.0,86,0.00,,---,0.02,VWS V14.00,2013-04-23 01:51:00,
2013-04-22 19:56:00,25.5,21.9,30.42,NNE,25,3.0,5.0,86,0.00,,---,0.02,VWS V14.00,2013-04-23 01:56:00,
2013-04-22 20:01:00,25.5,21.9,30.42,NE,46,4.0,6.0,86,0.00,,---,0.02,VWS V14.00,2013-04-23 02:01:00,
2013-04-22 20:06:00,25.5,21.9,30.39,NNE,19,2.0,7.0,86,0.00,,---,0.02,VWS V14.00,2013-04-23 02:06:00,
2013-04-22 20:11:00,25.5,21.9,30.38,North,360,5.0,6.0,86,0.00,,---,0.02,VWS V14.00,2013-04-23 02:11:00,
2013-04-22 20:16:00,25.4,21.8,30.39,North,10,0.0,4.0,86,0.00,,---,0.02,VWS V14.00,2013-04-23 02:16:00,
2013-04-22 20:21:00,25.3,21.7,30.39,NNE,19,2.0,5.0,86,0.00,,---,0.02,VWS V14.00,2013-04-23 02:21:00,
2013-04-22 20:26:00,25.1,21.5,30.39,NE,46,1.0,6.0,86,0.00,,---,0.02,VWS V14.00,2013-04-23 02:26:00,
2013-04-22 20:31:00,24.9,21.3,30.40,NNE,32,3.0,6.0,86,0.00,,---,0.02,VWS V14.00,2013-04-23 02:31:00,
2013-04-22 20:36:00,24.8,21.2,30.39,NE,36,4.0,4.0,86,0.00,,---,0.02,VWS V14.00,2013-04-23 02:36:00,
2013-04-22 20:41:00,24.8,21.2,30.40,NNE,27,1.0,3.0,86,0.00,,---,0.02,VWS V14.00,2013-04-23 02:41:00,
2013-04-22 20:47:00,24.8,21.2,30.41,NE,41,6.0,6.0,86,0.00,,---,0.02,VWS V14.00,2013-04-23 02:47:00,
2013-04-22 20:52:00,24.8,21.2,30.41,NE,34,5.0,5.0,86,0.00,,---,0.02,VWS V14.00,2013-04-23 02:52:00,
2013-04-22 20:57:00,24.8,21.2,30.41,NNE,22,3.0,5.0,86,0.00,,---,0.02,VWS V14.00,2013-04-23 02:57:00,
2013-04-22 21:02:00,24.8,21.2,30.37,NNE,24,0.0,3.0,86,0.00,,---,0.02,VWS V14.00,2013-04-23 03:02:00,
2013-04-22 21:07:00,24.8,21.2,30.38,NNE,30,3.0,5.0,86,0.00,,---,0.02,VWS V14.00,2013-04-23 03:07:00,
2013-04-22 21:12:00,24.8,21.2,30.37,NE,34,2.0,4.0,86,0.00,,---,0.02,VWS V14.00,2013-04-23 03:12:00,
2013-04-22 21:17:00,24.8,21.2,30.38,NNE,15,2.0,4.0,86,0.00,,---,0.02,VWS V14.00,2013-04-23 03:17:00,
2013-04-22 21:22:00,24.8,21.2,30.38,NNE,16,0.0,0.0,86,0.00,,---,0.02,VWS V14.00,2013-04-23 03:22:00,
2013-04-22 21:27:00,24.8,21.5,30.37,NNE,17,3.0,3.0,87,0.00,,---,0.02,VWS V14.00,2013-04-23 03:27:00,
2013-04-22 21:32:00,24.9,21.6,30.38,NNE,23,0.0,1.0,87,0.00,,---,0.02,VWS V14.00,2013-04-23 03:32:00,
2013-04-22 21:37:00,24.9,21.6,30.38,NNE,21,0.0,2.0,87,0.00,,---,0.02,VWS V14.00,2013-04-23 03:37:00,
2013-04-22 21:42:00,24.8,21.5,30.38,NNE,21,0.0,0.0,87,0.00,,---,0.02,VWS V14.00,2013-04-23 03:42:00,
2013-04-22 21:47:00,24.8,21.5,30.39,NNE,21,0.0,0.0,87,0.00,,---,0.02,VWS V14.00,2013-04-23 03:47:00,
2013-04-22 21:52:00,24.8,21.5,30.39,NNE,21,0.0,0.0,87,0.00,,---,0.02,VWS V14.00,2013-04-23 03:52:00,
2013-04-22 21:57:00,24.7,21.4,30.39,NNE,21,0.0,0.0,87,0.00,,---,0.02,VWS V14.00,2013-04-23 03:57:00,
2013-04-22 22:01:00,24.7,21.4,30.41,NNE,24,0.0,0.0,87,0.00,,---,0.02,VWS V14.00,2013-04-23 04:01:00,
2013-04-22 22:02:00,24.7,21.4,30.47,NNE,24,0.0,2.0,87,0.00,,---,0.02,VWS V14.00,2013-04-23 04:02:00,
2013-04-22 22:05:00,24.6,21.3,30.45,NNE,24,0.0,1.0,87,0.00,,---,0.02,VWS V14.00,2013-04-23 04:05:00,
2013-04-22 22:10:00,24.4,21.1,30.47,NNE,25,0.0,2.0,87,0.00,,---,0.02,VWS V14.00,2013-04-23 04:10:00,
2013-04-22 22:13:00,24.3,21.0,30.46,North,360,3.0,5.0,87,0.00,,---,0.02,VWS V14.00,2013-04-23 04:13:00,
2013-04-22 22:18:00,24.2,20.9,30.46,North,360,1.0,2.0,87,0.00,,---,0.02,VWS V14.00,2013-04-23 04:18:00,
2013-04-22 22:20:00,24.2,20.9,30.45,North,360,0.0,1.0,87,0.00,,---,0.02,VWS V14.00,2013-04-23 04:20:00,
2013-04-22 22:25:00,24.1,20.8,30.45,NNE,17,0.0,0.0,87,0.00,,---,0.02,VWS V14.00,2013-04-23 04:25:00,
2013-04-22 22:30:00,24.0,20.7,30.45,NNE,17,0.0,3.0,87,0.00,,---,0.02,VWS V14.00,2013-04-23 04:30:00,
2013-04-22 22:35:00,24.0,20.7,30.45,NE,44,0.0,3.0,87,0.00,,---,0.02,VWS V14.00,2013-04-23 04:35:00,
2013-04-22 22:40:00,23.9,20.6,30.47,NE,44,2.0,2.0,87,0.00,,---,0.02,VWS V14.00,2013-04-23 04:40:00,
2013-04-22 22:45:00,23.9,20.6,30.48,NE,44,0.0,0.0,87,0.00,,---,0.02,VWS V14.00,2013-04-23 04:45:00,
2013-04-22 22:50:00,23.9,20.6,30.46,NE,44,0.0,1.0,87,0.00,,---,0.02,VWS V14.00,2013-04-23 04:50:00,
2013-04-22 22:55:00,23.9,20.6,30.44,NE,44,0.0,0.0,87,0.00,,---,0.02,VWS V14.00,2013-04-23 04:55:00,
2013-04-22 23:00:00,23.9,20.6,30.43,NE,44,0.0,0.0,87,0.00,,---,0.02,VWS V14.00,2013-04-23 05:00:00,
2013-04-22 23:05:00,23.8,20.5,30.50,NE,44,0.0,1.0,87,0.00,,---,0.02,VWS V14.00,2013-04-23 05:05:00,
2013-04-22 23:10:00,23.8,20.5,30.50,NE,44,0.0,0.0,87,0.00,,---,0.02,VWS V14.00,2013-04-23 05:10:00,
2013-04-22 23:15:00,23.8,20.5,30.49,NE,44,0.0,0.0,87,0.00,,---,0.02,VWS V14.00,2013-04-23 05:15:00,
2013-04-22 23:20:00,23.8,20.5,30.49,NE,44,0.0,3.0,87,0.00,,---,0.02,VWS V14.00,2013-04-23 05:20:00,
2013-04-22 23:25:00,23.8,20.5,30.49,NE,44,0.0,2.0,87,0.00,,---,0.02,VWS V14.00,2013-04-23 05:25:00,
2013-04-22 23:30:00,23.8,20.5,30.49,NE,44,0.0,0.0,87,0.00,,---,0.02,VWS V14.00,2013-04-23 05:30:00,
2013-04-22 23:35:00,23.7,20.4,30.48,NE,44,0.0,0.0,87,0.00,,---,0.02,VWS V14.00,2013-04-23 05:35:00,
2013-04-22 23:40:00,23.7,20.4,30.49,NE,44,0.0,0.0,87,0.00,,---,0.02,VWS V14.00,2013-04-23 05:40:00,
2013-04-22 23:45:00,23.7,20.4,30.49,NE,44,0.0,0.0,87,0.00,,---,0.02,VWS V14.00,2013-04-23 05:45:00,
2013-04-22 23:50:00,23.7,20.4,30.49,NE,44,0.0,0.0,87,0.00,,---,0.02,VWS V14.00,2013-04-23 05:50:00,
2013-04-22 23:55:00,23.6,20.3,30.49,NE,44,0.0,2.0,87,0.00,,---,0.02,VWS V14.00,2013-04-23 05:55:00,